sensor_id;sensor_type;location;lat;lon;timestamp;pressure;altitude;pressure_sealevel;temperature;humidity
65175;BME280;51761;42.126;24.752;2022-08-11T00:02:27;99531.63;;;24.70;55.66
65175;BME280;51761;42.126;24.752;2022-08-11T00:04:55;99527.72;;;24.68;54.19
65175;BME280;51761;42.126;24.752;2022-08-11T00:07:22;99501.53;;;24.53;54.09
65175;BME280;51761;42.126;24.752;2022-08-11T00:09:49;99499.44;;;24.42;54.94
65175;BME280;51761;42.126;24.752;2022-08-11T00:12:16;99526.19;;;24.50;55.23
65175;BME280;51761;42.126;24.752;2022-08-11T00:14:43;99494.22;;;24.19;55.13
65175;BME280;51761;42.126;24.752;2022-08-11T00:17:12;99522.53;;;24.28;55.71
65175;BME280;51761;42.126;24.752;2022-08-11T00:19:44;99504.09;;;24.13;55.74
65175;BME280;51761;42.126;24.752;2022-08-11T00:22:11;99504.34;;;24.09;56.22
65175;BME280;51761;42.126;24.752;2022-08-11T00:24:44;99525.13;;;24.21;55.98
65175;BME280;51761;42.126;24.752;2022-08-11T00:27:10;99534.44;;;24.10;56.28
65175;BME280;51761;42.126;24.752;2022-08-11T00:29:36;99533.41;;;24.02;57.33
65175;BME280;51761;42.126;24.752;2022-08-11T00:32:03;99522.47;;;23.90;57.14
65175;BME280;51761;42.126;24.752;2022-08-11T00:34:33;99523.78;;;23.94;57.16
65175;BME280;51761;42.126;24.752;2022-08-11T00:39:33;99535.44;;;23.85;57.85
65175;BME280;51761;42.126;24.752;2022-08-11T00:42:26;99531.03;;;23.84;58.09
65175;BME280;51761;42.126;24.752;2022-08-11T00:45:20;99535.66;;;23.76;58.36
65175;BME280;51761;42.126;24.752;2022-08-11T00:48:01;99535.06;;;23.61;59.06
65175;BME280;51761;42.126;24.752;2022-08-11T00:50:46;99535.31;;;23.52;59.81
65175;BME280;51761;42.126;24.752;2022-08-11T00:54:02;99512.69;;;23.27;60.88
65175;BME280;51761;42.126;24.752;2022-08-11T01:02:18;99534.97;;;23.39;61.46
65175;BME280;51761;42.126;24.752;2022-08-11T01:05:30;99550.53;;;23.33;61.81
65175;BME280;51761;42.126;24.752;2022-08-11T01:22:05;99518.69;;;23.40;60.69
65175;BME280;51761;42.126;24.752;2022-08-11T01:24:55;99519.72;;;23.42;60.25
65175;BME280;51761;42.126;24.752;2022-08-11T01:45:31;99525.97;;;23.46;59.45
65175;BME280;51761;42.126;24.752;2022-08-11T01:48:06;99517.41;;;23.46;59.46
65175;BME280;51761;42.126;24.752;2022-08-11T01:50:51;99519.47;;;23.46;58.83
65175;BME280;51761;42.126;24.752;2022-08-11T01:53:47;99520.19;;;23.30;58.95
65175;BME280;51761;42.126;24.752;2022-08-11T02:06:52;99519.47;;;23.46;62.17
65175;BME280;51761;42.126;24.752;2022-08-11T02:09:29;99516.13;;;23.53;62.60
65175;BME280;51761;42.126;24.752;2022-08-11T02:12:04;99502.41;;;23.51;59.15
65175;BME280;51761;42.126;24.752;2022-08-11T02:14:42;99517.47;;;23.63;62.11
65175;BME280;51761;42.126;24.752;2022-08-11T02:17:22;99501.13;;;23.63;60.92
65175;BME280;51761;42.126;24.752;2022-08-11T02:20:21;99520.66;;;23.81;58.65
65175;BME280;51761;42.126;24.752;2022-08-11T02:28:59;99506.84;;;23.80;59.29
65175;BME280;51761;42.126;24.752;2022-08-11T02:34:47;99506.06;;;23.74;60.10
65175;BME280;51761;42.126;24.752;2022-08-11T02:45:34;99514.38;;;23.72;58.22
65175;BME280;51761;42.126;24.752;2022-08-11T02:48:24;99510.50;;;23.80;59.80
65175;BME280;51761;42.126;24.752;2022-08-11T03:02:13;99512.03;;;23.76;58.30
65175;BME280;51761;42.126;24.752;2022-08-11T03:04:43;99518.56;;;23.82;57.51
65175;BME280;51761;42.126;24.752;2022-08-11T03:07:22;99444.28;;;23.27;58.10
65175;BME280;51761;42.126;24.752;2022-08-11T03:09:57;99518.56;;;23.82;59.33
65175;BME280;51761;42.126;24.752;2022-08-11T03:12:29;99499.84;;;23.70;59.61
65175;BME280;51761;42.126;24.752;2022-08-11T03:15:27;99519.81;;;23.81;61.09
65175;BME280;51761;42.126;24.752;2022-08-11T03:18:24;99495.13;;;23.50;58.32
65175;BME280;51761;42.126;24.752;2022-08-11T03:21:02;99525.75;;;23.66;56.96
65175;BME280;51761;42.126;24.752;2022-08-11T03:23:40;99527.53;;;23.58;57.61
65175;BME280;51761;42.126;24.752;2022-08-11T03:29:34;99531.19;;;23.59;57.71
65175;BME280;51761;42.126;24.752;2022-08-11T03:32:08;99517.16;;;23.50;57.59
65175;BME280;51761;42.126;24.752;2022-08-11T03:34:38;99521.25;;;23.38;58.47
65175;BME280;51761;42.126;24.752;2022-08-11T03:37:17;99518.72;;;23.56;58.28
65175;BME280;51761;42.126;24.752;2022-08-11T03:40:29;99528.81;;;23.52;58.85
65175;BME280;51761;42.126;24.752;2022-08-11T03:48:42;99521.84;;;23.58;57.78
65175;BME280;51761;42.126;24.752;2022-08-11T03:54:59;99523.72;;;23.78;60.89
65175;BME280;51761;42.126;24.752;2022-08-11T04:03:26;99533.13;;;24.06;57.09
65175;BME280;51761;42.126;24.752;2022-08-11T04:14:34;99542.22;;;24.10;57.76
65175;BME280;51761;42.126;24.752;2022-08-11T04:17:21;99531.84;;;24.18;57.50
65175;BME280;51761;42.126;24.752;2022-08-11T04:23:00;99523.53;;;24.14;57.21
65175;BME280;51761;42.126;24.752;2022-08-11T04:57:40;99535.47;;;24.95;55.64
65175;BME280;51761;42.126;24.752;2022-08-11T05:06:25;99543.47;;;25.29;54.18
65175;BME280;51761;42.126;24.752;2022-08-11T05:12:05;99528.59;;;25.42;53.63
65175;BME280;51761;42.126;24.752;2022-08-11T05:14:48;99510.16;;;25.37;53.07
65175;BME280;51761;42.126;24.752;2022-08-11T05:17:55;99539.66;;;25.67;52.31
65175;BME280;51761;42.126;24.752;2022-08-11T05:20:49;99544.25;;;25.81;52.70
65175;BME280;51761;42.126;24.752;2022-08-11T05:23:38;99521.16;;;25.68;53.10
65175;BME280;51761;42.126;24.752;2022-08-11T05:26:23;99517.88;;;25.53;53.41
65175;BME280;51761;42.126;24.752;2022-08-11T05:32:29;99538.75;;;25.89;54.51
65175;BME280;51761;42.126;24.752;2022-08-11T05:35:22;99529.44;;;25.77;52.84
65175;BME280;51761;42.126;24.752;2022-08-11T05:37:50;99511.59;;;25.60;52.26
65175;BME280;51761;42.126;24.752;2022-08-11T05:40:35;99539.06;;;25.80;52.22
65175;BME280;51761;42.126;24.752;2022-08-11T05:43:20;99534.09;;;25.86;52.33
65175;BME280;51761;42.126;24.752;2022-08-11T05:46:06;99513.97;;;25.56;54.71
65175;BME280;51761;42.126;24.752;2022-08-11T05:48:51;99509.25;;;25.59;54.07
65175;BME280;51761;42.126;24.752;2022-08-11T05:51:40;99549.34;;;25.53;54.30
65175;BME280;51761;42.126;24.752;2022-08-11T05:54:25;99549.84;;;25.52;54.68
65175;BME280;51761;42.126;24.752;2022-08-11T05:57:18;99547.22;;;25.59;55.22
65175;BME280;51761;42.126;24.752;2022-08-11T05:59:46;99552.13;;;25.70;53.78
65175;BME280;51761;42.126;24.752;2022-08-11T06:02:12;99539.47;;;25.49;54.03
65175;BME280;51761;42.126;24.752;2022-08-11T06:04:38;99523.81;;;25.61;54.37
65175;BME280;51761;42.126;24.752;2022-08-11T06:07:06;99514.72;;;25.62;54.56
65175;BME280;51761;42.126;24.752;2022-08-11T06:09:39;99546.97;;;25.57;55.70
65175;BME280;51761;42.126;24.752;2022-08-11T06:12:38;99550.66;;;25.52;55.10
65175;BME280;51761;42.126;24.752;2022-08-11T06:15:06;99542.19;;;25.76;55.05
65175;BME280;51761;42.126;24.752;2022-08-11T06:17:42;99519.28;;;25.82;55.66
65175;BME280;51761;42.126;24.752;2022-08-11T06:20:10;99526.94;;;26.08;52.91
65175;BME280;51761;42.126;24.752;2022-08-11T06:22:55;99536.06;;;26.42;52.11
65175;BME280;51761;42.126;24.752;2022-08-11T06:25:22;99508.41;;;26.50;50.95
65175;BME280;51761;42.126;24.752;2022-08-11T06:27:55;99551.97;;;26.96;51.03
65175;BME280;51761;42.126;24.752;2022-08-11T06:30:32;99508.94;;;27.02;49.48
65175;BME280;51761;42.126;24.752;2022-08-11T06:32:59;99540.50;;;27.26;49.95
65175;BME280;51761;42.126;24.752;2022-08-11T06:41:20;99538.16;;;28.03;49.15
65175;BME280;51761;42.126;24.752;2022-08-11T06:44:26;99538.91;;;28.41;48.00
65175;BME280;51761;42.126;24.752;2022-08-11T06:46:54;99525.38;;;28.99;46.43
65175;BME280;51761;42.126;24.752;2022-08-11T06:49:33;99529.22;;;29.92;43.48
65175;BME280;51761;42.126;24.752;2022-08-11T06:52:18;99526.97;;;30.11;43.48
65175;BME280;51761;42.126;24.752;2022-08-11T06:54:49;99539.53;;;30.75;41.43
65175;BME280;51761;42.126;24.752;2022-08-11T06:57:21;99537.78;;;30.92;41.65
65175;BME280;51761;42.126;24.752;2022-08-11T07:00:05;99542.63;;;31.81;38.54
65175;BME280;51761;42.126;24.752;2022-08-11T07:03:05;99550.06;;;32.12;38.32
65175;BME280;51761;42.126;24.752;2022-08-11T07:08:33;99536.97;;;32.91;36.46
65175;BME280;51761;42.126;24.752;2022-08-11T07:14:51;99533.66;;;33.02;35.99
65175;BME280;51761;42.126;24.752;2022-08-11T07:17:43;99538.84;;;33.11;36.66
65175;BME280;51761;42.126;24.752;2022-08-11T07:20:14;99541.66;;;33.78;35.39
65175;BME280;51761;42.126;24.752;2022-08-11T07:23:02;99529.13;;;33.76;35.43
65175;BME280;51761;42.126;24.752;2022-08-11T07:25:50;99541.50;;;33.69;34.65
65175;BME280;51761;42.126;24.752;2022-08-11T07:28:39;99529.72;;;33.74;34.14
65175;BME280;51761;42.126;24.752;2022-08-11T07:31:36;99544.19;;;33.67;35.43
65175;BME280;51761;42.126;24.752;2022-08-11T07:34:22;99559.44;;;33.67;35.52
65175;BME280;51761;42.126;24.752;2022-08-11T07:36:54;99542.84;;;33.75;35.52
65175;BME280;51761;42.126;24.752;2022-08-11T07:39:23;99516.19;;;33.77;34.90
65175;BME280;51761;42.126;24.752;2022-08-11T07:41:51;99540.22;;;34.97;33.18
65175;BME280;51761;42.126;24.752;2022-08-11T07:44:17;99541.25;;;34.61;33.92
65175;BME280;51761;42.126;24.752;2022-08-11T07:46:46;99538.81;;;34.10;34.75
65175;BME280;51761;42.126;24.752;2022-08-11T07:49:33;99498.09;;;33.46;35.23
65175;BME280;51761;42.126;24.752;2022-08-11T07:52:18;99534.16;;;34.15;34.82
65175;BME280;51761;42.126;24.752;2022-08-11T07:55:16;99536.56;;;33.94;35.22
65175;BME280;51761;42.126;24.752;2022-08-11T07:57:46;99534.38;;;34.17;34.99
65175;BME280;51761;42.126;24.752;2022-08-11T08:00:39;99523.53;;;33.63;35.55
65175;BME280;51761;42.126;24.752;2022-08-11T08:03:25;99533.69;;;33.86;35.46
65175;BME280;51761;42.126;24.752;2022-08-11T08:06:11;99521.03;;;34.14;34.56
65175;BME280;51761;42.126;24.752;2022-08-11T08:08:56;99499.31;;;33.90;35.02
65175;BME280;51761;42.126;24.752;2022-08-11T08:11:42;99483.16;;;33.80;35.22
65175;BME280;51761;42.126;24.752;2022-08-11T08:14:27;99522.06;;;34.41;34.20
65175;BME280;51761;42.126;24.752;2022-08-11T08:17:11;99494.25;;;34.62;33.17
65175;BME280;51761;42.126;24.752;2022-08-11T08:19:58;99483.66;;;34.33;33.74
65175;BME280;51761;42.126;24.752;2022-08-11T08:22:24;99516.44;;;34.43;34.38
65175;BME280;51761;42.126;24.752;2022-08-11T08:24:50;99493.44;;;34.05;34.49
65175;BME280;51761;42.126;24.752;2022-08-11T08:27:17;99514.69;;;34.08;35.17
65175;BME280;51761;42.126;24.752;2022-08-11T08:29:44;99518.00;;;34.68;34.27
65175;BME280;51761;42.126;24.752;2022-08-11T08:32:29;99497.31;;;34.40;34.64
65175;BME280;51761;42.126;24.752;2022-08-11T08:34:57;99509.09;;;34.42;34.25
65175;BME280;51761;42.126;24.752;2022-08-11T08:37:25;99485.94;;;34.34;33.71
65175;BME280;51761;42.126;24.752;2022-08-11T08:39:51;99507.50;;;34.48;34.04
65175;BME280;51761;42.126;24.752;2022-08-11T08:42:23;99511.13;;;34.80;33.87
65175;BME280;51761;42.126;24.752;2022-08-11T08:45:04;99507.19;;;34.68;34.00
65175;BME280;51761;42.126;24.752;2022-08-11T08:47:58;99481.66;;;34.67;33.55
65175;BME280;51761;42.126;24.752;2022-08-11T08:50:29;99501.97;;;34.67;32.72
65175;BME280;51761;42.126;24.752;2022-08-11T08:53:24;99501.91;;;34.74;33.45
65175;BME280;51761;42.126;24.752;2022-08-11T08:55:57;99500.28;;;34.25;34.01
65175;BME280;51761;42.126;24.752;2022-08-11T08:58:24;99494.91;;;33.82;34.65
65175;BME280;51761;42.126;24.752;2022-08-11T09:00:52;99502.66;;;34.11;34.06
65175;BME280;51761;42.126;24.752;2022-08-11T09:03:18;99495.50;;;34.12;34.00
65175;BME280;51761;42.126;24.752;2022-08-11T09:16:04;99478.13;;;33.73;35.48
65175;BME280;51761;42.126;24.752;2022-08-11T09:18:31;99453.81;;;32.32;36.34
65175;BME280;51761;42.126;24.752;2022-08-11T09:20:58;99478.25;;;32.23;37.22
65175;BME280;51761;42.126;24.752;2022-08-11T09:23:26;99450.16;;;32.84;35.19
65175;BME280;51761;42.126;24.752;2022-08-11T09:26:11;99465.78;;;33.65;33.77
65175;BME280;51761;42.126;24.752;2022-08-11T09:28:56;99468.47;;;33.78;33.90
65175;BME280;51761;42.126;24.752;2022-08-11T09:31:23;99466.19;;;34.01;34.12
65175;BME280;51761;42.126;24.752;2022-08-11T09:33:53;99438.97;;;34.04;33.21
65175;BME280;51761;42.126;24.752;2022-08-11T09:36:19;99467.38;;;34.62;33.23
65175;BME280;51761;42.126;24.752;2022-08-11T09:39:04;99455.47;;;34.74;31.16
65175;BME280;51761;42.126;24.752;2022-08-11T09:41:49;99449.28;;;34.78;31.08
65175;BME280;51761;42.126;24.752;2022-08-11T09:44:15;99450.56;;;35.01;31.45
65175;BME280;51761;42.126;24.752;2022-08-11T09:47:01;99440.91;;;34.82;31.48
65175;BME280;51761;42.126;24.752;2022-08-11T09:49:28;99449.31;;;35.12;31.59
65175;BME280;51761;42.126;24.752;2022-08-11T09:51:54;99441.28;;;35.03;30.98
65175;BME280;51761;42.126;24.752;2022-08-11T09:54:22;99436.22;;;35.03;30.87
65175;BME280;51761;42.126;24.752;2022-08-11T09:56:51;99435.72;;;34.97;31.25
65175;BME280;51761;42.126;24.752;2022-08-11T09:59:36;99433.72;;;35.24;30.68
65175;BME280;51761;42.126;24.752;2022-08-11T10:02:03;99406.44;;;34.62;30.70
65175;BME280;51761;42.126;24.752;2022-08-11T10:04:37;99414.19;;;34.83;31.71
65175;BME280;51761;42.126;24.752;2022-08-11T10:07:04;99443.75;;;34.89;30.49
65175;BME280;51761;42.126;24.752;2022-08-11T10:12:05;99452.19;;;34.95;30.63
65175;BME280;51761;42.126;24.752;2022-08-11T10:14:33;99438.31;;;35.27;28.88
65175;BME280;51761;42.126;24.752;2022-08-11T10:17:20;99425.44;;;35.38;29.44
65175;BME280;51761;42.126;24.752;2022-08-11T10:19:48;99426.41;;;34.82;30.90
65175;BME280;51761;42.126;24.752;2022-08-11T10:22:16;99402.59;;;35.00;30.42
65175;BME280;51761;42.126;24.752;2022-08-11T10:25:01;99424.50;;;35.18;28.97
65175;BME280;51761;42.126;24.752;2022-08-11T10:27:47;99428.56;;;35.15;30.51
65175;BME280;51761;42.126;24.752;2022-08-11T10:30:20;99435.84;;;35.41;28.73
65175;BME280;51761;42.126;24.752;2022-08-11T10:33:06;99418.13;;;34.95;29.71
65175;BME280;51761;42.126;24.752;2022-08-11T10:35:51;99425.00;;;34.10;31.96
65175;BME280;51761;42.126;24.752;2022-08-11T10:38:17;99419.44;;;33.65;33.22
65175;BME280;51761;42.126;24.752;2022-08-11T10:40:45;99384.09;;;33.27;33.26
65175;BME280;51761;42.126;24.752;2022-08-11T10:43:31;99415.50;;;33.85;33.35
65175;BME280;51761;42.126;24.752;2022-08-11T10:45:56;99406.44;;;33.81;33.33
65175;BME280;51761;42.126;24.752;2022-08-11T10:48:40;99369.22;;;33.30;33.40
65175;BME280;51761;42.126;24.752;2022-08-11T10:51:07;99382.81;;;33.05;33.16
65175;BME280;51761;42.126;24.752;2022-08-11T10:53:42;99393.16;;;33.16;33.56
65175;BME280;51761;42.126;24.752;2022-08-11T10:56:29;99395.78;;;32.52;33.19
65175;BME280;51761;42.126;24.752;2022-08-11T10:59:14;99392.59;;;33.10;33.81
65175;BME280;51761;42.126;24.752;2022-08-11T11:01:41;99393.31;;;33.80;32.46
65175;BME280;51761;42.126;24.752;2022-08-11T11:04:21;99381.75;;;34.04;31.88
65175;BME280;51761;42.126;24.752;2022-08-11T11:09:44;99379.78;;;34.56;31.99
65175;BME280;51761;42.126;24.752;2022-08-11T11:12:36;99380.53;;;34.80;31.81
65175;BME280;51761;42.126;24.752;2022-08-11T11:15:22;99357.34;;;34.80;30.04
65175;BME280;51761;42.126;24.752;2022-08-11T11:18:16;99357.09;;;34.86;30.68
65175;BME280;51761;42.126;24.752;2022-08-11T11:21:05;99335.13;;;35.09;28.97
65175;BME280;51761;42.126;24.752;2022-08-11T11:29:19;99370.16;;;35.45;29.27
65175;BME280;51761;42.126;24.752;2022-08-11T11:31:52;99342.38;;;35.01;29.44
65175;BME280;51761;42.126;24.752;2022-08-11T11:37:07;99362.03;;;34.93;28.24
65175;BME280;51761;42.126;24.752;2022-08-11T11:39:36;99357.00;;;34.76;29.52
65175;BME280;51761;42.126;24.752;2022-08-11T11:42:05;99331.56;;;35.01;28.29
65175;BME280;51761;42.126;24.752;2022-08-11T11:44:31;99358.38;;;35.26;26.57
65175;BME280;51761;42.126;24.752;2022-08-11T11:46:57;99355.97;;;34.81;29.80
65175;BME280;51761;42.126;24.752;2022-08-11T11:49:27;99301.63;;;33.67;28.63
65175;BME280;51761;42.126;24.752;2022-08-11T11:51:54;99347.47;;;34.18;28.98
65175;BME280;51761;42.126;24.752;2022-08-11T11:54:27;99348.50;;;34.54;28.95
65175;BME280;51761;42.126;24.752;2022-08-11T11:56:56;99346.84;;;34.85;26.62
65175;BME280;51761;42.126;24.752;2022-08-11T11:59:24;99331.31;;;34.90;27.36
65175;BME280;51761;42.126;24.752;2022-08-11T12:02:12;99329.44;;;35.19;27.38
65175;BME280;51761;42.126;24.752;2022-08-11T12:04:40;99322.00;;;35.25;27.92
65175;BME280;51761;42.126;24.752;2022-08-11T12:07:07;99320.13;;;34.86;28.14
65175;BME280;51761;42.126;24.752;2022-08-11T12:09:53;99326.19;;;34.98;27.94
65175;BME280;51761;42.126;24.752;2022-08-11T12:12:20;99315.75;;;34.95;28.39
65175;BME280;51761;42.126;24.752;2022-08-11T12:15:06;99292.13;;;34.98;28.60
65175;BME280;51761;42.126;24.752;2022-08-11T12:17:35;99313.97;;;35.16;28.92
65175;BME280;51761;42.126;24.752;2022-08-11T12:20:02;99293.47;;;35.14;28.11
65175;BME280;51761;42.126;24.752;2022-08-11T12:22:29;99303.44;;;35.38;27.13
65175;BME280;51761;42.126;24.752;2022-08-11T12:25:14;99283.50;;;35.08;27.78
65175;BME280;51761;42.126;24.752;2022-08-11T12:27:59;99311.09;;;35.43;27.94
65175;BME280;51761;42.126;24.752;2022-08-11T12:30:25;99272.97;;;35.29;27.37
65175;BME280;51761;42.126;24.752;2022-08-11T12:32:51;99283.09;;;35.38;27.36
65175;BME280;51761;42.126;24.752;2022-08-11T12:35:17;99285.78;;;35.53;27.23
65175;BME280;51761;42.126;24.752;2022-08-11T12:37:51;99310.22;;;35.06;27.10
65175;BME280;51761;42.126;24.752;2022-08-11T12:40:25;99273.75;;;33.79;29.21
65175;BME280;51761;42.126;24.752;2022-08-11T12:43:13;99283.00;;;33.21;29.77
65175;BME280;51761;42.126;24.752;2022-08-11T12:46:01;99293.50;;;32.94;30.94
65175;BME280;51761;42.126;24.752;2022-08-11T12:48:33;99277.81;;;33.20;30.29
65175;BME280;51761;42.126;24.752;2022-08-11T12:51:22;99301.16;;;33.86;27.82
65175;BME280;51761;42.126;24.752;2022-08-11T12:54:13;99275.22;;;34.12;27.72
65175;BME280;51761;42.126;24.752;2022-08-11T12:56:44;99296.25;;;34.37;28.16
65175;BME280;51761;42.126;24.752;2022-08-11T12:59:46;99297.84;;;34.72;27.47
65175;BME280;51761;42.126;24.752;2022-08-11T13:02:31;99297.59;;;34.77;28.63
65175;BME280;51761;42.126;24.752;2022-08-11T13:05:16;99284.13;;;34.89;28.02
65175;BME280;51761;42.126;24.752;2022-08-11T13:07:43;99301.94;;;35.20;27.62
65175;BME280;51761;42.126;24.752;2022-08-11T13:10:12;99290.63;;;35.41;27.01
65175;BME280;51761;42.126;24.752;2022-08-11T13:12:39;99286.53;;;35.27;27.33
65175;BME280;51761;42.126;24.752;2022-08-11T13:15:23;99280.25;;;35.04;27.24
65175;BME280;51761;42.126;24.752;2022-08-11T13:17:51;99281.56;;;34.76;27.90
65175;BME280;51761;42.126;24.752;2022-08-11T13:20:20;99287.13;;;33.99;28.49
65175;BME280;51761;42.126;24.752;2022-08-11T13:22:48;99275.66;;;33.84;28.61
65175;BME280;51761;42.126;24.752;2022-08-11T13:25:16;99281.69;;;33.47;29.40
65175;BME280;51761;42.126;24.752;2022-08-11T13:27:47;99248.09;;;33.44;28.77
65175;BME280;51761;42.126;24.752;2022-08-11T13:30:14;99247.50;;;33.77;27.81
65175;BME280;51761;42.126;24.752;2022-08-11T13:32:59;99278.41;;;34.24;27.57
65175;BME280;51761;42.126;24.752;2022-08-11T13:35:27;99269.53;;;34.22;28.61
65175;BME280;51761;42.126;24.752;2022-08-11T13:37:53;99271.75;;;33.89;30.14
65175;BME280;51761;42.126;24.752;2022-08-11T13:40:21;99258.69;;;33.81;29.95
65175;BME280;51761;42.126;24.752;2022-08-11T13:42:48;99199.97;;;33.56;29.37
65175;BME280;51761;42.126;24.752;2022-08-11T13:45:15;99257.94;;;34.22;29.93
65175;BME280;51761;42.126;24.752;2022-08-11T13:47:41;99263.50;;;34.03;28.93
65175;BME280;51761;42.126;24.752;2022-08-11T13:50:08;99265.72;;;33.70;28.94
65175;BME280;51761;42.126;24.752;2022-08-11T13:52:38;99244.16;;;33.56;29.31
65175;BME280;51761;42.126;24.752;2022-08-11T13:55:10;99257.22;;;33.72;29.20
65175;BME280;51761;42.126;24.752;2022-08-11T13:57:48;99227.03;;;33.51;29.23
65175;BME280;51761;42.126;24.752;2022-08-11T14:00:14;99243.50;;;33.01;29.49
65175;BME280;51761;42.126;24.752;2022-08-11T14:02:42;99266.84;;;33.03;29.51
65175;BME280;51761;42.126;24.752;2022-08-11T14:05:16;99238.19;;;32.90;30.02
65175;BME280;51761;42.126;24.752;2022-08-11T14:07:52;99264.59;;;32.87;29.24
65175;BME280;51761;42.126;24.752;2022-08-11T14:10:20;99265.31;;;32.48;28.88
65175;BME280;51761;42.126;24.752;2022-08-11T14:12:54;99254.09;;;32.52;29.68
65175;BME280;51761;42.126;24.752;2022-08-11T14:15:41;99268.56;;;32.52;31.12
65175;BME280;51761;42.126;24.752;2022-08-11T14:18:26;99257.78;;;32.45;31.84
65175;BME280;51761;42.126;24.752;2022-08-11T14:20:56;99264.13;;;32.59;31.58
65175;BME280;51761;42.126;24.752;2022-08-11T14:23:46;99260.44;;;32.58;30.87
65175;BME280;51761;42.126;24.752;2022-08-11T14:26:24;99258.53;;;32.53;30.90
65175;BME280;51761;42.126;24.752;2022-08-11T14:31:56;99270.94;;;32.16;32.69
65175;BME280;51761;42.126;24.752;2022-08-11T14:34:26;99269.75;;;32.04;32.71
65175;BME280;51761;42.126;24.752;2022-08-11T14:37:06;99271.50;;;32.00;33.25
65175;BME280;51761;42.126;24.752;2022-08-11T14:39:47;99287.69;;;31.95;32.40
65175;BME280;51761;42.126;24.752;2022-08-11T14:42:18;99283.66;;;31.91;32.39
65175;BME280;51761;42.126;24.752;2022-08-11T14:45:08;99283.44;;;31.89;33.29
65175;BME280;51761;42.126;24.752;2022-08-11T14:47:56;99273.66;;;31.92;32.93
65175;BME280;51761;42.126;24.752;2022-08-11T14:50:27;99276.34;;;31.82;32.38
65175;BME280;51761;42.126;24.752;2022-08-11T14:53:02;99273.63;;;31.84;33.14
65175;BME280;51761;42.126;24.752;2022-08-11T14:55:31;99245.88;;;31.51;32.52
65175;BME280;51761;42.126;24.752;2022-08-11T14:58:26;99273.59;;;31.54;32.18
65175;BME280;51761;42.126;24.752;2022-08-11T15:00:54;99250.25;;;31.30;32.02
65175;BME280;51761;42.126;24.752;2022-08-11T15:03:21;99262.41;;;31.43;32.24
65175;BME280;51761;42.126;24.752;2022-08-11T15:05:53;99271.28;;;31.60;31.54
65175;BME280;51761;42.126;24.752;2022-08-11T15:08:20;99272.28;;;31.70;31.92
65175;BME280;51761;42.126;24.752;2022-08-11T15:11:12;99278.44;;;31.74;31.06
65175;BME280;51761;42.126;24.752;2022-08-11T15:17:24;99269.72;;;31.52;31.40
65175;BME280;51761;42.126;24.752;2022-08-11T15:23:23;99270.50;;;31.60;31.48
65175;BME280;51761;42.126;24.752;2022-08-11T15:26:17;99269.53;;;31.57;31.83
65175;BME280;51761;42.126;24.752;2022-08-11T15:28:46;99265.88;;;31.49;32.10
65175;BME280;51761;42.126;24.752;2022-08-11T15:31:31;99265.84;;;31.34;32.31
65175;BME280;51761;42.126;24.752;2022-08-11T15:34:09;99235.59;;;31.13;32.05
65175;BME280;51761;42.126;24.752;2022-08-11T15:36:57;99236.91;;;31.05;32.56
65175;BME280;51761;42.126;24.752;2022-08-11T15:39:52;99259.56;;;31.01;32.96
65175;BME280;51761;42.126;24.752;2022-08-11T15:42:46;99259.94;;;30.97;33.20
65175;BME280;51761;42.126;24.752;2022-08-11T15:45:35;99252.78;;;30.83;33.31
65175;BME280;51761;42.126;24.752;2022-08-11T15:48:25;99232.28;;;30.59;33.35
65175;BME280;51761;42.126;24.752;2022-08-11T15:50:56;99238.63;;;30.57;33.16
65175;BME280;51761;42.126;24.752;2022-08-11T15:53:38;99259.66;;;30.73;33.43
65175;BME280;51761;42.126;24.752;2022-08-11T15:56:05;99265.19;;;30.63;33.63
65175;BME280;51761;42.126;24.752;2022-08-11T15:58:38;99250.84;;;30.43;33.60
65175;BME280;51761;42.126;24.752;2022-08-11T16:01:24;99274.69;;;30.51;33.71
65175;BME280;51761;42.126;24.752;2022-08-11T16:04:15;99271.50;;;30.34;33.82
65175;BME280;51761;42.126;24.752;2022-08-11T16:12:40;99321.66;;;30.10;35.01
65175;BME280;51761;42.126;24.752;2022-08-11T16:15:09;99346.88;;;29.97;35.22
65175;BME280;51761;42.126;24.752;2022-08-11T16:17:58;99347.41;;;29.75;35.88
65175;BME280;51761;42.126;24.752;2022-08-11T16:20:27;99379.47;;;29.12;41.87
65175;BME280;51761;42.126;24.752;2022-08-11T16:22:56;99388.75;;;28.53;45.65
65175;BME280;51761;42.126;24.752;2022-08-11T16:25:24;99366.47;;;27.70;47.95
65175;BME280;51761;42.126;24.752;2022-08-11T16:28:01;99354.31;;;27.28;49.37
65175;BME280;51761;42.126;24.752;2022-08-11T16:30:46;99397.56;;;27.11;51.23
65175;BME280;51761;42.126;24.752;2022-08-11T16:33:14;99371.81;;;26.63;52.22
65175;BME280;51761;42.126;24.752;2022-08-11T16:35:40;99398.72;;;26.79;51.72
65175;BME280;51761;42.126;24.752;2022-08-11T16:38:27;99420.63;;;26.76;51.81
65175;BME280;51761;42.126;24.752;2022-08-11T16:41:11;99422.66;;;26.28;55.16
65175;BME280;51761;42.126;24.752;2022-08-11T16:43:44;99435.22;;;25.90;56.93
65175;BME280;51761;42.126;24.752;2022-08-11T16:46:29;99436.25;;;25.52;58.79
65175;BME280;51761;42.126;24.752;2022-08-11T16:49:21;99422.25;;;24.81;60.93
65175;BME280;51761;42.126;24.752;2022-08-11T16:51:49;99377.72;;;24.23;62.11
65175;BME280;51761;42.126;24.752;2022-08-11T16:54:15;99459.19;;;24.62;62.30
65175;BME280;51761;42.126;24.752;2022-08-11T16:56:45;99467.22;;;24.36;64.78
65175;BME280;51761;42.126;24.752;2022-08-11T16:59:21;99478.69;;;24.15;66.80
65175;BME280;51761;42.126;24.752;2022-08-11T17:01:58;99491.03;;;23.68;70.32
65175;BME280;51761;42.126;24.752;2022-08-11T17:04:30;99498.81;;;23.09;74.41
65175;BME280;51761;42.126;24.752;2022-08-11T17:07:19;99485.28;;;22.51;78.28
65175;BME280;51761;42.126;24.752;2022-08-11T17:10:06;99488.03;;;22.09;82.02